sensor_id;sensor_type;location;lat;lon;timestamp;pressure;altitude;pressure_sealevel;temperature
78961;BMP280;68362;45.970;12.646;2024-01-06T00:00:08;99860.75;;;6.91
78961;BMP280;68362;45.970;12.646;2024-01-06T00:01:11;99860.34;;;6.94
78961;BMP280;68362;45.970;12.646;2024-01-06T00:02:18;99855.78;;;6.83
78961;BMP280;68362;45.970;12.646;2024-01-06T00:03:20;99849.78;;;6.82
78961;BMP280;68362;45.970;12.646;2024-01-06T00:04:22;99841.34;;;6.87
78961;BMP280;68362;45.970;12.646;2024-01-06T00:05:25;99837.19;;;6.79
78961;BMP280;68362;45.970;12.646;2024-01-06T00:06:27;99836.94;;;6.87
78961;BMP280;68362;45.970;12.646;2024-01-06T00:07:29;99835.38;;;6.80
78961;BMP280;68362;45.970;12.646;2024-01-06T00:08:31;99834.56;;;6.79
78961;BMP280;68362;45.970;12.646;2024-01-06T00:09:34;99833.78;;;6.79
78961;BMP280;68362;45.970;12.646;2024-01-06T00:10:36;99833.22;;;6.70
78961;BMP280;68362;45.970;12.646;2024-01-06T00:11:38;99833.78;;;6.79
78961;BMP280;68362;45.970;12.646;2024-01-06T00:12:40;99827.81;;;6.71
78961;BMP280;68362;45.970;12.646;2024-01-06T00:13:43;99836.78;;;6.76
78961;BMP280;68362;45.970;12.646;2024-01-06T00:14:45;99826.78;;;6.72
78961;BMP280;68362;45.970;12.646;2024-01-06T00:15:47;99828.97;;;6.76
78961;BMP280;68362;45.970;12.646;2024-01-06T00:16:49;99823.59;;;6.70
78961;BMP280;68362;45.970;12.646;2024-01-06T00:17:52;99827.81;;;6.71
78961;BMP280;68362;45.970;12.646;2024-01-06T00:18:54;99828.56;;;6.79
78961;BMP280;68362;45.970;12.646;2024-01-06T00:19:56;99823.28;;;6.85
78961;BMP280;68362;45.970;12.646;2024-01-06T00:20:58;99819.88;;;6.85
78961;BMP280;68362;45.970;12.646;2024-01-06T00:22:01;99816.09;;;6.81
78961;BMP280;68362;45.970;12.646;2024-01-06T00:23:03;99821.47;;;6.86
78961;BMP280;68362;45.970;12.646;2024-01-06T00:24:05;99816.09;;;6.81
78961;BMP280;68362;45.970;12.646;2024-01-06T00:25:08;99815.88;;;6.82
78961;BMP280;68362;45.970;12.646;2024-01-06T00:26:10;99811.91;;;6.80
78961;BMP280;68362;45.970;12.646;2024-01-06T00:27:12;99810.88;;;6.81
78961;BMP280;68362;45.970;12.646;2024-01-06T00:28:15;99811.09;;;6.79
78961;BMP280;68362;45.970;12.646;2024-01-06T00:29:18;99814.03;;;6.89
78961;BMP280;68362;45.970;12.646;2024-01-06T00:30:20;99803.84;;;6.81
78961;BMP280;68362;45.970;12.646;2024-01-06T00:31:22;99811.03;;;6.86
78961;BMP280;68362;45.970;12.646;2024-01-06T00:32:24;99817.09;;;6.86
78961;BMP280;68362;45.970;12.646;2024-01-06T00:33:27;99818.94;;;6.79
78961;BMP280;68362;45.970;12.646;2024-01-06T00:34:29;99803.03;;;6.56
78961;BMP280;68362;45.970;12.646;2024-01-06T00:35:31;99789.94;;;6.62
78961;BMP280;68362;45.970;12.646;2024-01-06T00:36:34;99789.75;;;6.64
78961;BMP280;68362;45.970;12.646;2024-01-06T00:37:36;99793.75;;;6.66
78961;BMP280;68362;45.970;12.646;2024-01-06T00:38:38;99794.69;;;6.72
78961;BMP280;68362;45.970;12.646;2024-01-06T00:39:40;99808.28;;;6.81
78961;BMP280;68362;45.970;12.646;2024-01-06T00:40:42;99805.56;;;6.69
78961;BMP280;68362;45.970;12.646;2024-01-06T00:41:44;99801.44;;;6.55
78961;BMP280;68362;45.970;12.646;2024-01-06T00:42:47;99797.88;;;6.49
78961;BMP280;68362;45.970;12.646;2024-01-06T00:43:49;99794.47;;;6.48
78961;BMP280;68362;45.970;12.646;2024-01-06T00:44:51;99798.28;;;6.46
78961;BMP280;68362;45.970;12.646;2024-01-06T00:45:53;99793.44;;;6.50
78961;BMP280;68362;45.970;12.646;2024-01-06T00:46:56;99789.44;;;6.47
78961;BMP280;68362;45.970;12.646;2024-01-06T00:47:58;99780.91;;;6.65
78961;BMP280;68362;45.970;12.646;2024-01-06T00:49:00;99762.47;;;6.66
78961;BMP280;68362;45.970;12.646;2024-01-06T00:50:02;99755.59;;;6.72
78961;BMP280;68362;45.970;12.646;2024-01-06T00:51:05;99747.72;;;6.79
78961;BMP280;68362;45.970;12.646;2024-01-06T00:52:08;99753.97;;;6.78
78961;BMP280;68362;45.970;12.646;2024-01-06T00:53:11;99760.31;;;6.82
78961;BMP280;68362;45.970;12.646;2024-01-06T00:54:13;99743.31;;;6.79
78961;BMP280;68362;45.970;12.646;2024-01-06T00:55:15;99736.81;;;6.88
78961;BMP280;68362;45.970;12.646;2024-01-06T00:56:17;99744.78;;;6.93
78961;BMP280;68362;45.970;12.646;2024-01-06T00:57:20;99753.41;;;6.94
78961;BMP280;68362;45.970;12.646;2024-01-06T00:58:26;99753.25;;;6.89
78961;BMP280;68362;45.970;12.646;2024-01-06T00:59:28;99759.19;;;6.78
78961;BMP280;68362;45.970;12.646;2024-01-06T01:00:30;99747.53;;;6.80
78961;BMP280;68362;45.970;12.646;2024-01-06T01:01:32;99749.41;;;6.91
78961;BMP280;68362;45.970;12.646;2024-01-06T01:02:35;99746.66;;;6.86
78961;BMP280;68362;45.970;12.646;2024-01-06T01:03:41;99752.97;;;6.97
78961;BMP280;68362;45.970;12.646;2024-01-06T01:04:43;99758.97;;;6.79
78961;BMP280;68362;45.970;12.646;2024-01-06T01:05:45;99761.91;;;6.83
78961;BMP280;68362;45.970;12.646;2024-01-06T01:06:47;99759.59;;;6.75
78961;BMP280;68362;45.970;12.646;2024-01-06T01:07:50;99751.88;;;6.86
78961;BMP280;68362;45.970;12.646;2024-01-06T01:08:52;99749.38;;;6.98
78961;BMP280;68362;45.970;12.646;2024-01-06T01:09:55;99742.34;;;6.98
78961;BMP280;68362;45.970;12.646;2024-01-06T01:10:58;99738.88;;;7.05
78961;BMP280;68362;45.970;12.646;2024-01-06T01:12:01;99744.88;;;6.87
78961;BMP280;68362;45.970;12.646;2024-01-06T01:13:03;99737.38;;;6.90
78961;BMP280;68362;45.970;12.646;2024-01-06T01:14:05;99727.47;;;6.99
78961;BMP280;68362;45.970;12.646;2024-01-06T01:15:08;99732.06;;;7.04
78961;BMP280;68362;45.970;12.646;2024-01-06T01:16:10;99722.84;;;7.01
78961;BMP280;68362;45.970;12.646;2024-01-06T01:17:13;99722.38;;;6.86
78961;BMP280;68362;45.970;12.646;2024-01-06T01:18:15;99717.50;;;6.96
78961;BMP280;68362;45.970;12.646;2024-01-06T01:19:17;99716.91;;;6.94
78961;BMP280;68362;45.970;12.646;2024-01-06T01:20:20;99710.50;;;6.90
78961;BMP280;68362;45.970;12.646;2024-01-06T01:21:22;99705.94;;;6.85
78961;BMP280;68362;45.970;12.646;2024-01-06T01:22:24;99701.81;;;6.78
78961;BMP280;68362;45.970;12.646;2024-01-06T01:23:26;99698.88;;;6.92
78961;BMP280;68362;45.970;12.646;2024-01-06T01:24:29;99696.19;;;6.99
78961;BMP280;68362;45.970;12.646;2024-01-06T01:25:31;99701.63;;;6.97
78961;BMP280;68362;45.970;12.646;2024-01-06T01:26:33;99701.09;;;6.89
78961;BMP280;68362;45.970;12.646;2024-01-06T01:27:35;99702.88;;;6.95
78961;BMP280;68362;45.970;12.646;2024-01-06T01:28:37;99705.75;;;7.05
78961;BMP280;68362;45.970;12.646;2024-01-06T01:29:39;99716.03;;;7.00
78961;BMP280;68362;45.970;12.646;2024-01-06T01:30:41;99710.97;;;6.87
78961;BMP280;68362;45.970;12.646;2024-01-06T01:31:44;99722.47;;;6.97
78961;BMP280;68362;45.970;12.646;2024-01-06T01:32:47;99723.16;;;7.11
78961;BMP280;68362;45.970;12.646;2024-01-06T01:33:49;99721.25;;;7.00
78961;BMP280;68362;45.970;12.646;2024-01-06T01:34:51;99735.59;;;7.09
78961;BMP280;68362;45.970;12.646;2024-01-06T01:35:53;99744.28;;;7.03
78961;BMP280;68362;45.970;12.646;2024-01-06T01:36:56;99746.78;;;6.91
78961;BMP280;68362;45.970;12.646;2024-01-06T01:37:58;99741.81;;;6.90
78961;BMP280;68362;45.970;12.646;2024-01-06T01:39:00;99740.88;;;7.03
78961;BMP280;68362;45.970;12.646;2024-01-06T01:40:02;99743.41;;;7.09
78961;BMP280;68362;45.970;12.646;2024-01-06T01:41:05;99736.03;;;7.06
78961;BMP280;68362;45.970;12.646;2024-01-06T01:42:07;99735.19;;;7.12
78961;BMP280;68362;45.970;12.646;2024-01-06T01:43:21;99728.75;;;7.15
78961;BMP280;68362;45.970;12.646;2024-01-06T01:44:23;99724.53;;;7.14
78961;BMP280;68362;45.970;12.646;2024-01-06T01:45:25;99728.50;;;6.98
78961;BMP280;68362;45.970;12.646;2024-01-06T01:46:29;99725.25;;;7.03
78961;BMP280;68362;45.970;12.646;2024-01-06T01:47:31;99724.06;;;6.98
78961;BMP280;68362;45.970;12.646;2024-01-06T01:48:33;99721.47;;;6.98
78961;BMP280;68362;45.970;12.646;2024-01-06T01:49:37;99716.75;;;6.89
78961;BMP280;68362;45.970;12.646;2024-01-06T01:50:40;99713.63;;;6.98
78961;BMP280;68362;45.970;12.646;2024-01-06T01:51:42;99712.69;;;6.93
78961;BMP280;68362;45.970;12.646;2024-01-06T01:52:46;99714.56;;;6.86
78961;BMP280;68362;45.970;12.646;2024-01-06T01:53:49;99709.50;;;6.91
78961;BMP280;68362;45.970;12.646;2024-01-06T01:54:52;99708.13;;;6.88
78961;BMP280;68362;45.970;12.646;2024-01-06T01:55:54;99700.59;;;6.80
78961;BMP280;68362;45.970;12.646;2024-01-06T01:56:56;99703.97;;;6.81
78961;BMP280;68362;45.970;12.646;2024-01-06T01:57:59;99703.75;;;6.82
78961;BMP280;68362;45.970;12.646;2024-01-06T01:59:06;99700.84;;;6.72
78961;BMP280;68362;45.970;12.646;2024-01-06T02:00:09;99702.16;;;6.81
78961;BMP280;68362;45.970;12.646;2024-01-06T02:01:12;99697.59;;;6.77
78961;BMP280;68362;45.970;12.646;2024-01-06T02:02:15;99696.28;;;6.67
78961;BMP280;68362;45.970;12.646;2024-01-06T02:03:17;99700.28;;;6.70
78961;BMP280;68362;45.970;12.646;2024-01-06T02:04:20;99706.16;;;6.84
78961;BMP280;68362;45.970;12.646;2024-01-06T02:05:22;99707.34;;;6.88
78961;BMP280;68362;45.970;12.646;2024-01-06T02:06:24;99701.94;;;6.83
78961;BMP280;68362;45.970;12.646;2024-01-06T02:07:26;99699.69;;;6.68
78961;BMP280;68362;45.970;12.646;2024-01-06T02:08:28;99705.03;;;6.73
78961;BMP280;68362;45.970;12.646;2024-01-06T02:09:30;99701.63;;;6.72
78961;BMP280;68362;45.970;12.646;2024-01-06T02:10:33;99707.38;;;6.81
78961;BMP280;68362;45.970;12.646;2024-01-06T02:11:36;99710.22;;;6.80
78961;BMP280;68362;45.970;12.646;2024-01-06T02:12:38;99702.63;;;6.78
78961;BMP280;68362;45.970;12.646;2024-01-06T02:13:40;99700.44;;;6.75
78961;BMP280;68362;45.970;12.646;2024-01-06T02:14:43;99704.13;;;6.86
78961;BMP280;68362;45.970;12.646;2024-01-06T02:15:45;99706.47;;;6.94
78961;BMP280;68362;45.970;12.646;2024-01-06T02:16:47;99709.72;;;6.89
78961;BMP280;68362;45.970;12.646;2024-01-06T02:17:49;99698.06;;;6.92
78961;BMP280;68362;45.970;12.646;2024-01-06T02:18:52;99704.88;;;6.93
78961;BMP280;68362;45.970;12.646;2024-01-06T02:19:54;99700.44;;;6.93
78961;BMP280;68362;45.970;12.646;2024-01-06T02:21:00;99698.88;;;6.92
78961;BMP280;68362;45.970;12.646;2024-01-06T02:22:03;99699.28;;;6.89
78961;BMP280;68362;45.970;12.646;2024-01-06T02:23:05;99700.09;;;6.90
78961;BMP280;68362;45.970;12.646;2024-01-06T02:24:07;99703.75;;;6.82
78961;BMP280;68362;45.970;12.646;2024-01-06T02:25:09;99692.47;;;6.88
78961;BMP280;68362;45.970;12.646;2024-01-06T02:26:14;99694.69;;;6.66
78961;BMP280;68362;45.970;12.646;2024-01-06T02:27:17;99689.41;;;6.73
78961;BMP280;68362;45.970;12.646;2024-01-06T02:28:19;99693.88;;;6.66
78961;BMP280;68362;45.970;12.646;2024-01-06T02:29:22;99689.75;;;6.58
78961;BMP280;68362;45.970;12.646;2024-01-06T02:30:24;99687.19;;;6.52
78961;BMP280;68362;45.970;12.646;2024-01-06T02:31:27;99689.31;;;6.61
78961;BMP280;68362;45.970;12.646;2024-01-06T02:32:29;99690.00;;;6.50
78961;BMP280;68362;45.970;12.646;2024-01-06T02:33:31;99691.13;;;6.61
78961;BMP280;68362;45.970;12.646;2024-01-06T02:34:34;99696.84;;;6.51
78961;BMP280;68362;45.970;12.646;2024-01-06T02:35:37;99697.97;;;6.55
78961;BMP280;68362;45.970;12.646;2024-01-06T02:36:39;99690.63;;;6.70
78961;BMP280;68362;45.970;12.646;2024-01-06T02:37:41;99683.81;;;6.51
78961;BMP280;68362;45.970;12.646;2024-01-06T02:38:43;99683.50;;;6.59
78961;BMP280;68362;45.970;12.646;2024-01-06T02:39:45;99685.81;;;6.49
78961;BMP280;68362;45.970;12.646;2024-01-06T02:40:47;99688.72;;;6.59
78961;BMP280;68362;45.970;12.646;2024-01-06T02:41:49;99683.13;;;6.56
78961;BMP280;68362;45.970;12.646;2024-01-06T02:42:52;99684.34;;;6.60
78961;BMP280;68362;45.970;12.646;2024-01-06T02:43:54;99685.47;;;6.64
78961;BMP280;68362;45.970;12.646;2024-01-06T02:44:58;99681.84;;;6.65
78961;BMP280;68362;45.970;12.646;2024-01-06T02:46:00;99689.13;;;6.56
78961;BMP280;68362;45.970;12.646;2024-01-06T02:47:02;99678.00;;;6.49
78961;BMP280;68362;45.970;12.646;2024-01-06T02:48:05;99685.59;;;6.51
78961;BMP280;68362;45.970;12.646;2024-01-06T02:49:07;99684.22;;;6.48
78961;BMP280;68362;45.970;12.646;2024-01-06T02:50:10;99680.66;;;6.42
78961;BMP280;68362;45.970;12.646;2024-01-06T02:51:12;99678.13;;;6.54
78961;BMP280;68362;45.970;12.646;2024-01-06T02:52:15;99681.50;;;6.61
78961;BMP280;68362;45.970;12.646;2024-01-06T02:53:17;99682.88;;;6.64
78961;BMP280;68362;45.970;12.646;2024-01-06T02:54:19;99679.56;;;6.50
78961;BMP280;68362;45.970;12.646;2024-01-06T02:55:21;99678.63;;;6.69
78961;BMP280;68362;45.970;12.646;2024-01-06T02:56:23;99676.63;;;6.71
78961;BMP280;68362;45.970;12.646;2024-01-06T02:57:25;99677.06;;;6.87
78961;BMP280;68362;45.970;12.646;2024-01-06T02:58:27;99673.03;;;6.66
78961;BMP280;68362;45.970;12.646;2024-01-06T02:59:30;99673.75;;;6.73
78961;BMP280;68362;45.970;12.646;2024-01-06T03:00:32;99672.63;;;6.69
78961;BMP280;68362;45.970;12.646;2024-01-06T03:01:34;99670.66;;;6.83
78961;BMP280;68362;45.970;12.646;2024-01-06T03:02:37;99667.31;;;6.76
78961;BMP280;68362;45.970;12.646;2024-01-06T03:03:39;99666.91;;;6.79
78961;BMP280;68362;45.970;12.646;2024-01-06T03:04:42;99671.06;;;6.86
78961;BMP280;68362;45.970;12.646;2024-01-06T03:05:44;99671.41;;;6.65
78961;BMP280;68362;45.970;12.646;2024-01-06T03:06:46;99665.47;;;6.58
78961;BMP280;68362;45.970;12.646;2024-01-06T03:07:53;99658.53;;;6.52
78961;BMP280;68362;45.970;12.646;2024-01-06T03:08:56;99656.72;;;6.77
78961;BMP280;68362;45.970;12.646;2024-01-06T03:09:58;99656.47;;;6.79
78961;BMP280;68362;45.970;12.646;2024-01-06T03:11:00;99656.59;;;6.65
78961;BMP280;68362;45.970;12.646;2024-01-06T03:12:03;99652.28;;;6.78
78961;BMP280;68362;45.970;12.646;2024-01-06T03:13:06;99651.69;;;6.76
78961;BMP280;68362;45.970;12.646;2024-01-06T03:14:08;99637.41;;;6.60
78961;BMP280;68362;45.970;12.646;2024-01-06T03:15:10;99647.41;;;6.63
78961;BMP280;68362;45.970;12.646;2024-01-06T03:16:13;99648.38;;;6.68
78961;BMP280;68362;45.970;12.646;2024-01-06T03:17:16;99649.06;;;6.57
78961;BMP280;68362;45.970;12.646;2024-01-06T03:18:18;99641.44;;;6.56
78961;BMP280;68362;45.970;12.646;2024-01-06T03:19:20;99638.34;;;6.65
78961;BMP280;68362;45.970;12.646;2024-01-06T03:20:22;99645.16;;;6.66
78961;BMP280;68362;45.970;12.646;2024-01-06T03:21:25;99638.50;;;6.70
78961;BMP280;68362;45.970;12.646;2024-01-06T03:22:28;99631.09;;;6.67
78961;BMP280;68362;45.970;12.646;2024-01-06T03:23:31;99638.28;;;6.72
78961;BMP280;68362;45.970;12.646;2024-01-06T03:24:33;99634.09;;;6.71
78961;BMP280;68362;45.970;12.646;2024-01-06T03:25:36;99624.38;;;6.60
78961;BMP280;68362;45.970;12.646;2024-01-06T03:26:38;99633.78;;;6.61
78961;BMP280;68362;45.970;12.646;2024-01-06T03:27:40;99632.41;;;6.58
78961;BMP280;68362;45.970;12.646;2024-01-06T03:28:42;99632.81;;;6.55
78961;BMP280;68362;45.970;12.646;2024-01-06T03:29:45;99635.00;;;6.58
78961;BMP280;68362;45.970;12.646;2024-01-06T03:30:47;99632.53;;;6.63
78961;BMP280;68362;45.970;12.646;2024-01-06T03:31:49;99628.19;;;6.57
78961;BMP280;68362;45.970;12.646;2024-01-06T03:32:51;99630.53;;;6.65
78961;BMP280;68362;45.970;12.646;2024-01-06T03:33:54;99629.69;;;6.46
78961;BMP280;68362;45.970;12.646;2024-01-06T03:34:58;99627.34;;;6.63
78961;BMP280;68362;45.970;12.646;2024-01-06T03:36:04;99628.91;;;6.64
78961;BMP280;68362;45.970;12.646;2024-01-06T03:37:07;99632.53;;;6.63
78961;BMP280;68362;45.970;12.646;2024-01-06T03:38:09;99633.53;;;6.44
78961;BMP280;68362;45.970;12.646;2024-01-06T03:39:11;99642.78;;;6.40
78961;BMP280;68362;45.970;12.646;2024-01-06T03:40:15;99639.59;;;6.38
78961;BMP280;68362;45.970;12.646;2024-01-06T03:41:17;99642.78;;;6.40
78961;BMP280;68362;45.970;12.646;2024-01-06T03:42:19;99644.78;;;6.38
78961;BMP280;68362;45.970;12.646;2024-01-06T03:43:21;99641.59;;;6.36
78961;BMP280;68362;45.970;12.646;2024-01-06T03:44:24;99639.81;;;6.36
78961;BMP280;68362;45.970;12.646;2024-01-06T03:45:27;99638.44;;;6.34
78961;BMP280;68362;45.970;12.646;2024-01-06T03:46:29;99636.38;;;6.36
78961;BMP280;68362;45.970;12.646;2024-01-06T03:47:31;99634.44;;;6.31
78961;BMP280;68362;45.970;12.646;2024-01-06T03:48:33;99629.66;;;6.28
78961;BMP280;68362;45.970;12.646;2024-01-06T03:49:36;99632.84;;;6.30
78961;BMP280;68362;45.970;12.646;2024-01-06T03:50:38;99638.44;;;6.34
78961;BMP280;68362;45.970;12.646;2024-01-06T03:51:41;99634.81;;;6.35
78961;BMP280;68362;45.970;12.646;2024-01-06T03:52:43;99640.44;;;6.32
78961;BMP280;68362;45.970;12.646;2024-01-06T03:53:45;99633.22;;;6.34
78961;BMP280;68362;45.970;12.646;2024-01-06T03:54:47;99639.66;;;6.31
78961;BMP280;68362;45.970;12.646;2024-01-06T03:55:49;99634.50;;;6.25
78961;BMP280;68362;45.970;12.646;2024-01-06T03:56:51;99639.66;;;6.31
78961;BMP280;68362;45.970;12.646;2024-01-06T03:57:54;99634.03;;;6.34
78961;BMP280;68362;45.970;12.646;2024-01-06T03:58:56;99631.63;;;6.33
78961;BMP280;68362;45.970;12.646;2024-01-06T03:59:59;99633.03;;;6.29
78961;BMP280;68362;45.970;12.646;2024-01-06T04:01:02;99640.28;;;6.52
78961;BMP280;68362;45.970;12.646;2024-01-06T04:02:04;99636.03;;;6.57
78961;BMP280;68362;45.970;12.646;2024-01-06T04:03:07;99637.75;;;6.63
78961;BMP280;68362;45.970;12.646;2024-01-06T04:04:10;99626.63;;;6.75
78961;BMP280;68362;45.970;12.646;2024-01-06T04:05:13;99632.91;;;6.67
78961;BMP280;68362;45.970;12.646;2024-01-06T04:06:15;99632.81;;;6.80
78961;BMP280;68362;45.970;12.646;2024-01-06T04:07:17;99644.53;;;6.89
78961;BMP280;68362;45.970;12.646;2024-01-06T04:08:19;99643.44;;;6.97
78961;BMP280;68362;45.970;12.646;2024-01-06T04:09:22;99637.78;;;7.00
78961;BMP280;68362;45.970;12.646;2024-01-06T04:10:24;99638.38;;;6.84
78961;BMP280;68362;45.970;12.646;2024-01-06T04:11:26;99639.88;;;6.91
78961;BMP280;68362;45.970;12.646;2024-01-06T04:12:28;99632.22;;;6.96
78961;BMP280;68362;45.970;12.646;2024-01-06T04:13:30;99635.34;;;7.05
78961;BMP280;68362;45.970;12.646;2024-01-06T04:14:33;99635.91;;;7.07
78961;BMP280;68362;45.970;12.646;2024-01-06T04:15:35;99632.78;;;6.98
78961;BMP280;68362;45.970;12.646;2024-01-06T04:16:37;99636.94;;;7.06
78961;BMP280;68362;45.970;12.646;2024-01-06T04:17:40;99638.75;;;6.87
78961;BMP280;68362;45.970;12.646;2024-01-06T04:18:42;99637.06;;;6.93
78961;BMP280;68362;45.970;12.646;2024-01-06T04:19:44;99636.38;;;7.04
78961;BMP280;68362;45.970;12.646;2024-01-06T04:20:47;99637.34;;;7.03
78961;BMP280;68362;45.970;12.646;2024-01-06T04:21:49;99631.44;;;6.96
78961;BMP280;68362;45.970;12.646;2024-01-06T04:22:51;99632.97;;;7.04
78961;BMP280;68362;45.970;12.646;2024-01-06T04:23:53;99635.16;;;7.00
78961;BMP280;68362;45.970;12.646;2024-01-06T04:24:57;99633.00;;;6.79
78961;BMP280;68362;45.970;12.646;2024-01-06T04:26:00;99635.91;;;6.89
78961;BMP280;68362;45.970;12.646;2024-01-06T04:27:02;99632.91;;;6.67
78961;BMP280;68362;45.970;12.646;2024-01-06T04:28:04;99640.63;;;6.55
78961;BMP280;68362;45.970;12.646;2024-01-06T04:29:07;99630.53;;;6.65
78961;BMP280;68362;45.970;12.646;2024-01-06T04:30:10;99638.06;;;6.73
78961;BMP280;68362;45.970;12.646;2024-01-06T04:31:12;99636.75;;;6.64
78961;BMP280;68362;45.970;12.646;2024-01-06T04:32:15;99625.34;;;6.84
78961;BMP280;68362;45.970;12.646;2024-01-06T04:33:17;99633.16;;;7.02
78961;BMP280;68362;45.970;12.646;2024-01-06T04:34:20;99633.81;;;6.97
78961;BMP280;68362;45.970;12.646;2024-01-06T04:35:22;99630.47;;;7.09
78961;BMP280;68362;45.970;12.646;2024-01-06T04:36:25;99629.75;;;7.02
78961;BMP280;68362;45.970;12.646;2024-01-06T04:37:27;99624.91;;;7.05
78961;BMP280;68362;45.970;12.646;2024-01-06T04:38:29;99622.63;;;7.09
78961;BMP280;68362;45.970;12.646;2024-01-06T04:39:31;99620.13;;;7.02
78961;BMP280;68362;45.970;12.646;2024-01-06T04:40:38;99622.53;;;7.04
78961;BMP280;68362;45.970;12.646;2024-01-06T04:41:40;99625.84;;;7.11
78961;BMP280;68362;45.970;12.646;2024-01-06T04:42:42;99623.66;;;7.08
78961;BMP280;68362;45.970;12.646;2024-01-06T04:43:46;99632.66;;;6.93
78961;BMP280;68362;45.970;12.646;2024-01-06T04:44:49;99619.91;;;6.85
78961;BMP280;68362;45.970;12.646;2024-01-06T04:45:51;99625.06;;;6.92
78961;BMP280;68362;45.970;12.646;2024-01-06T04:46:53;99622.94;;;6.82
78961;BMP280;68362;45.970;12.646;2024-01-06T04:47:56;99622.41;;;6.73
78961;BMP280;68362;45.970;12.646;2024-01-06T04:48:58;99630.31;;;6.85
78961;BMP280;68362;45.970;12.646;2024-01-06T04:50:00;99616.91;;;7.00
78961;BMP280;68362;45.970;12.646;2024-01-06T04:51:03;99628.09;;;7.07
78961;BMP280;68362;45.970;12.646;2024-01-06T04:52:05;99623.66;;;7.08
78961;BMP280;68362;45.970;12.646;2024-01-06T04:53:08;99630.63;;;7.14
78961;BMP280;68362;45.970;12.646;2024-01-06T04:54:10;99618.94;;;7.16
78961;BMP280;68362;45.970;12.646;2024-01-06T04:55:12;99622.59;;;6.97
78961;BMP280;68362;45.970;12.646;2024-01-06T04:56:14;99624.69;;;6.88
78961;BMP280;68362;45.970;12.646;2024-01-06T04:57:16;99621.78;;;6.96
78961;BMP280;68362;45.970;12.646;2024-01-06T04:58:19;99632.44;;;7.13
78961;BMP280;68362;45.970;12.646;2024-01-06T04:59:21;99630.41;;;7.15
78961;BMP280;68362;45.970;12.646;2024-01-06T05:00:23;99635.69;;;7.09
78961;BMP280;68362;45.970;12.646;2024-01-06T05:01:27;99631.47;;;6.89
78961;BMP280;68362;45.970;12.646;2024-01-06T05:02:30;99633.81;;;6.79
78961;BMP280;68362;45.970;12.646;2024-01-06T05:03:32;99633.44;;;6.76
78961;BMP280;68362;45.970;12.646;2024-01-06T05:04:34;99633.28;;;6.70
78961;BMP280;68362;45.970;12.646;2024-01-06T05:05:36;99636.53;;;6.66
78961;BMP280;68362;45.970;12.646;2024-01-06T05:06:39;99642.97;;;6.63
78961;BMP280;68362;45.970;12.646;2024-01-06T05:07:41;99632.41;;;6.77
78961;BMP280;68362;45.970;12.646;2024-01-06T05:08:43;99626.31;;;6.64
78961;BMP280;68362;45.970;12.646;2024-01-06T05:09:47;99633.34;;;6.64
78961;BMP280;68362;45.970;12.646;2024-01-06T05:10:50;99625.53;;;6.64
78961;BMP280;68362;45.970;12.646;2024-01-06T05:11:53;99628.31;;;6.62
78961;BMP280;68362;45.970;12.646;2024-01-06T05:12:55;99629.78;;;6.58
78961;BMP280;68362;45.970;12.646;2024-01-06T05:13:57;99629.69;;;6.71
78961;BMP280;68362;45.970;12.646;2024-01-06T05:14:59;99627.34;;;6.63
78961;BMP280;68362;45.970;12.646;2024-01-06T05:16:01;99628.72;;;6.84
78961;BMP280;68362;45.970;12.646;2024-01-06T05:17:04;99625.69;;;6.69
78961;BMP280;68362;45.970;12.646;2024-01-06T05:18:06;99627.28;;;6.70
78961;BMP280;68362;45.970;12.646;2024-01-06T05:19:09;99631.06;;;6.92
78961;BMP280;68362;45.970;12.646;2024-01-06T05:20:11;99624.47;;;6.90
78961;BMP280;68362;45.970;12.646;2024-01-06T05:21:13;99623.25;;;6.92
78961;BMP280;68362;45.970;12.646;2024-01-06T05:22:15;99627.06;;;6.90
78961;BMP280;68362;45.970;12.646;2024-01-06T05:23:18;99630.19;;;6.98
78961;BMP280;68362;45.970;12.646;2024-01-06T05:24:20;99629.09;;;7.06
78961;BMP280;68362;45.970;12.646;2024-01-06T05:25:22;99631.25;;;7.09
78961;BMP280;68362;45.970;12.646;2024-01-06T05:26:24;99629.34;;;7.05
78961;BMP280;68362;45.970;12.646;2024-01-06T05:27:26;99630.91;;;7.06
78961;BMP280;68362;45.970;12.646;2024-01-06T05:28:28;99633.38;;;7.01
78961;BMP280;68362;45.970;12.646;2024-01-06T05:29:30;99635.91;;;6.89
78961;BMP280;68362;45.970;12.646;2024-01-06T05:30:33;99633.06;;;6.90
78961;BMP280;68362;45.970;12.646;2024-01-06T05:31:35;99634.09;;;6.71
78961;BMP280;68362;45.970;12.646;2024-01-06T05:32:37;99636.41;;;6.79
78961;BMP280;68362;45.970;12.646;2024-01-06T05:33:40;99636.34;;;6.86
78961;BMP280;68362;45.970;12.646;2024-01-06T05:34:43;99645.34;;;6.71
78961;BMP280;68362;45.970;12.646;2024-01-06T05:35:46;99642.47;;;6.73
78961;BMP280;68362;45.970;12.646;2024-01-06T05:36:48;99640.53;;;6.68
78961;BMP280;68362;45.970;12.646;2024-01-06T05:37:50;99636.47;;;6.72
78961;BMP280;68362;45.970;12.646;2024-01-06T05:38:53;99638.22;;;6.79
78961;BMP280;68362;45.970;12.646;2024-01-06T05:39:55;99641.63;;;6.97
78961;BMP280;68362;45.970;12.646;2024-01-06T05:40:57;99642.56;;;7.03
78961;BMP280;68362;45.970;12.646;2024-01-06T05:41:59;99647.78;;;7.03
78961;BMP280;68362;45.970;12.646;2024-01-06T05:43:01;99643.88;;;6.94
78961;BMP280;68362;45.970;12.646;2024-01-06T05:44:04;99650.88;;;6.75
78961;BMP280;68362;45.970;12.646;2024-01-06T05:45:06;99645.69;;;6.93
78961;BMP280;68362;45.970;12.646;2024-01-06T05:46:08;99641.53;;;6.86
78961;BMP280;68362;45.970;12.646;2024-01-06T05:47:12;99640.69;;;6.92
78961;BMP280;68362;45.970;12.646;2024-01-06T05:48:14;99648.28;;;6.93
78961;BMP280;68362;45.970;12.646;2024-01-06T05:49:17;99647.00;;;7.03
78961;BMP280;68362;45.970;12.646;2024-01-06T05:50:19;99634.03;;;6.78
78961;BMP280;68362;45.970;12.646;2024-01-06T05:51:22;99633.88;;;6.91
78961;BMP280;68362;45.970;12.646;2024-01-06T05:52:24;99636.28;;;6.92
78961;BMP280;68362;45.970;12.646;2024-01-06T05:53:26;99631.47;;;6.89
78961;BMP280;68362;45.970;12.646;2024-01-06T05:54:28;99624.91;;;6.87
78961;BMP280;68362;45.970;12.646;2024-01-06T05:55:31;99622.72;;;6.84
78961;BMP280;68362;45.970;12.646;2024-01-06T05:56:33;99625.06;;;6.92
78961;BMP280;68362;45.970;12.646;2024-01-06T05:57:35;99629.38;;;6.98
78961;BMP280;68362;45.970;12.646;2024-01-06T05:58:37;99628.88;;;6.89
78961;BMP280;68362;45.970;12.646;2024-01-06T05:59:40;99633.59;;;6.99